sensor_id;sensor_type;location;lat;lon;timestamp;temperature;humidity
42245;DHT22;27912;51.828;5.688;2022-11-12T00:00:53;6.10;99.90
42245;DHT22;27912;51.828;5.688;2022-11-12T00:03:19;6.10;99.90
42245;DHT22;27912;51.828;5.688;2022-11-12T00:05:45;6.10;99.90
42245;DHT22;27912;51.828;5.688;2022-11-12T00:08:11;6.00;99.90
42245;DHT22;27912;51.828;5.688;2022-11-12T00:10:37;6.00;99.90
42245;DHT22;27912;51.828;5.688;2022-11-12T00:13:03;6.00;99.90
42245;DHT22;27912;51.828;5.688;2022-11-12T00:15:28;6.00;99.90
42245;DHT22;27912;51.828;5.688;2022-11-12T00:17:54;5.90;99.90
42245;DHT22;27912;51.828;5.688;2022-11-12T00:20:20;5.90;99.90
42245;DHT22;27912;51.828;5.688;2022-11-12T00:22:45;5.90;99.90
42245;DHT22;27912;51.828;5.688;2022-11-12T00:25:11;5.90;99.90
42245;DHT22;27912;51.828;5.688;2022-11-12T00:27:36;5.80;99.90
42245;DHT22;27912;51.828;5.688;2022-11-12T00:30:03;5.80;99.90
42245;DHT22;27912;51.828;5.688;2022-11-12T00:32:29;5.80;99.90
42245;DHT22;27912;51.828;5.688;2022-11-12T00:34:54;5.80;99.90
42245;DHT22;27912;51.828;5.688;2022-11-12T00:37:20;5.70;99.90
42245;DHT22;27912;51.828;5.688;2022-11-12T00:39:47;5.70;99.90
42245;DHT22;27912;51.828;5.688;2022-11-12T00:42:13;5.70;99.90
42245;DHT22;27912;51.828;5.688;2022-11-12T00:44:38;5.70;99.90
42245;DHT22;27912;51.828;5.688;2022-11-12T00:47:04;5.60;99.90
42245;DHT22;27912;51.828;5.688;2022-11-12T00:49:29;5.60;99.90
42245;DHT22;27912;51.828;5.688;2022-11-12T00:51:55;5.60;99.90
42245;DHT22;27912;51.828;5.688;2022-11-12T00:54:20;5.60;99.90
42245;DHT22;27912;51.828;5.688;2022-11-12T00:56:46;5.50;99.90
42245;DHT22;27912;51.828;5.688;2022-11-12T00:59:12;5.50;99.90
42245;DHT22;27912;51.828;5.688;2022-11-12T01:01:38;5.50;99.90
42245;DHT22;27912;51.828;5.688;2022-11-12T01:04:04;5.40;99.90
42245;DHT22;27912;51.828;5.688;2022-11-12T01:06:29;5.40;99.90
42245;DHT22;27912;51.828;5.688;2022-11-12T01:08:55;5.40;99.90
42245;DHT22;27912;51.828;5.688;2022-11-12T01:11:24;5.30;99.90
42245;DHT22;27912;51.828;5.688;2022-11-12T01:13:58;5.30;99.90
42245;DHT22;27912;51.828;5.688;2022-11-12T01:16:28;5.30;99.90
42245;DHT22;27912;51.828;5.688;2022-11-12T01:18:56;5.30;99.90
42245;DHT22;27912;51.828;5.688;2022-11-12T01:21:24;5.30;99.90
42245;DHT22;27912;51.828;5.688;2022-11-12T01:23:50;5.30;99.90
42245;DHT22;27912;51.828;5.688;2022-11-12T01:26:18;5.30;99.90
42245;DHT22;27912;51.828;5.688;2022-11-12T01:28:45;5.30;99.90
42245;DHT22;27912;51.828;5.688;2022-11-12T01:31:25;5.30;99.90
42245;DHT22;27912;51.828;5.688;2022-11-12T01:33:56;5.30;99.90
42245;DHT22;27912;51.828;5.688;2022-11-12T01:36:22;5.30;99.90
42245;DHT22;27912;51.828;5.688;2022-11-12T01:38:48;5.20;99.90
42245;DHT22;27912;51.828;5.688;2022-11-12T01:41:26;5.20;99.90
42245;DHT22;27912;51.828;5.688;2022-11-12T01:44:19;5.20;99.90
42245;DHT22;27912;51.828;5.688;2022-11-12T01:49:55;5.20;99.90
42245;DHT22;27912;51.828;5.688;2022-11-12T01:52:29;5.20;99.90
42245;DHT22;27912;51.828;5.688;2022-11-12T01:55:02;5.10;99.90
42245;DHT22;27912;51.828;5.688;2022-11-12T01:57:42;5.20;99.90
42245;DHT22;27912;51.828;5.688;2022-11-12T02:00:10;5.20;99.90
42245;DHT22;27912;51.828;5.688;2022-11-12T02:02:38;5.10;99.90
42245;DHT22;27912;51.828;5.688;2022-11-12T02:05:07;5.10;99.90
42245;DHT22;27912;51.828;5.688;2022-11-12T02:07:35;5.10;99.90
42245;DHT22;27912;51.828;5.688;2022-11-12T02:10:03;5.10;99.90
42245;DHT22;27912;51.828;5.688;2022-11-12T02:12:30;5.10;99.90
42245;DHT22;27912;51.828;5.688;2022-11-12T02:15:14;5.00;99.90
42245;DHT22;27912;51.828;5.688;2022-11-12T02:17:39;5.00;99.90
42245;DHT22;27912;51.828;5.688;2022-11-12T02:20:09;5.00;99.90
42245;DHT22;27912;51.828;5.688;2022-11-12T02:22:35;5.00;99.90
42245;DHT22;27912;51.828;5.688;2022-11-12T02:25:00;5.00;99.90
42245;DHT22;27912;51.828;5.688;2022-11-12T02:27:26;5.00;99.90
42245;DHT22;27912;51.828;5.688;2022-11-12T02:29:52;5.00;99.90
42245;DHT22;27912;51.828;5.688;2022-11-12T02:32:18;5.00;99.90
42245;DHT22;27912;51.828;5.688;2022-11-12T02:34:44;5.00;99.90
42245;DHT22;27912;51.828;5.688;2022-11-12T02:37:09;5.00;99.90
42245;DHT22;27912;51.828;5.688;2022-11-12T02:39:35;5.00;99.90
42245;DHT22;27912;51.828;5.688;2022-11-12T02:42:00;5.00;99.90
42245;DHT22;27912;51.828;5.688;2022-11-12T02:44:26;5.10;99.90
42245;DHT22;27912;51.828;5.688;2022-11-12T02:46:52;5.10;99.90
42245;DHT22;27912;51.828;5.688;2022-11-12T02:49:17;5.10;99.90
42245;DHT22;27912;51.828;5.688;2022-11-12T02:51:43;5.10;99.90
42245;DHT22;27912;51.828;5.688;2022-11-12T02:54:08;5.10;99.90
42245;DHT22;27912;51.828;5.688;2022-11-12T02:56:34;5.10;99.90
42245;DHT22;27912;51.828;5.688;2022-11-12T02:59:00;5.10;99.90
42245;DHT22;27912;51.828;5.688;2022-11-12T03:01:26;5.10;99.90
42245;DHT22;27912;51.828;5.688;2022-11-12T03:03:51;5.10;99.90
42245;DHT22;27912;51.828;5.688;2022-11-12T03:06:17;5.10;99.90
42245;DHT22;27912;51.828;5.688;2022-11-12T03:08:42;5.10;99.90
42245;DHT22;27912;51.828;5.688;2022-11-12T03:11:10;5.00;99.90
42245;DHT22;27912;51.828;5.688;2022-11-12T03:13:36;5.00;99.90
42245;DHT22;27912;51.828;5.688;2022-11-12T03:16:02;5.00;99.90
42245;DHT22;27912;51.828;5.688;2022-11-12T03:18:27;5.00;99.90
42245;DHT22;27912;51.828;5.688;2022-11-12T03:20:53;4.90;99.90
42245;DHT22;27912;51.828;5.688;2022-11-12T03:23:18;4.90;99.90
42245;DHT22;27912;51.828;5.688;2022-11-12T03:25:44;5.00;99.90
42245;DHT22;27912;51.828;5.688;2022-11-12T03:28:12;5.00;99.90
42245;DHT22;27912;51.828;5.688;2022-11-12T03:30:39;5.00;99.90
42245;DHT22;27912;51.828;5.688;2022-11-12T03:33:06;5.00;99.90
42245;DHT22;27912;51.828;5.688;2022-11-12T03:35:32;5.00;99.90
42245;DHT22;27912;51.828;5.688;2022-11-12T03:37:58;5.00;99.90
42245;DHT22;27912;51.828;5.688;2022-11-12T03:40:24;5.00;99.90
42245;DHT22;27912;51.828;5.688;2022-11-12T03:42:50;4.90;99.90
42245;DHT22;27912;51.828;5.688;2022-11-12T03:45:17;4.90;99.90
42245;DHT22;27912;51.828;5.688;2022-11-12T03:47:45;4.90;99.90
42245;DHT22;27912;51.828;5.688;2022-11-12T03:50:12;4.80;99.90
42245;DHT22;27912;51.828;5.688;2022-11-12T03:52:42;4.80;99.90
42245;DHT22;27912;51.828;5.688;2022-11-12T03:55:08;4.80;99.90
42245;DHT22;27912;51.828;5.688;2022-11-12T03:57:34;4.80;99.90
42245;DHT22;27912;51.828;5.688;2022-11-12T03:59:59;4.80;99.90
42245;DHT22;27912;51.828;5.688;2022-11-12T04:02:25;4.80;99.90
42245;DHT22;27912;51.828;5.688;2022-11-12T04:04:54;4.70;99.90
42245;DHT22;27912;51.828;5.688;2022-11-12T04:07:38;4.70;99.90
42245;DHT22;27912;51.828;5.688;2022-11-12T04:10:22;4.70;99.90
42245;DHT22;27912;51.828;5.688;2022-11-12T04:12:47;4.70;99.90
42245;DHT22;27912;51.828;5.688;2022-11-12T04:15:32;4.70;99.90
42245;DHT22;27912;51.828;5.688;2022-11-12T04:17:57;4.70;99.90
42245;DHT22;27912;51.828;5.688;2022-11-12T04:20:41;4.70;99.90
42245;DHT22;27912;51.828;5.688;2022-11-12T04:23:25;4.70;99.90
42245;DHT22;27912;51.828;5.688;2022-11-12T04:25:51;4.70;99.90
42245;DHT22;27912;51.828;5.688;2022-11-12T04:28:35;4.60;99.90
42245;DHT22;27912;51.828;5.688;2022-11-12T04:31:01;4.60;99.90
42245;DHT22;27912;51.828;5.688;2022-11-12T04:33:27;4.60;99.90
42245;DHT22;27912;51.828;5.688;2022-11-12T04:35:52;4.50;99.90
42245;DHT22;27912;51.828;5.688;2022-11-12T04:38:18;4.50;99.90
42245;DHT22;27912;51.828;5.688;2022-11-12T04:40:43;4.50;99.90
42245;DHT22;27912;51.828;5.688;2022-11-12T04:43:27;4.40;99.90
42245;DHT22;27912;51.828;5.688;2022-11-12T04:46:11;4.40;99.90
42245;DHT22;27912;51.828;5.688;2022-11-12T04:48:37;4.40;99.90
42245;DHT22;27912;51.828;5.688;2022-11-12T04:51:04;4.40;99.90
42245;DHT22;27912;51.828;5.688;2022-11-12T04:53:53;4.40;99.90
42245;DHT22;27912;51.828;5.688;2022-11-12T04:56:19;4.30;99.90
42245;DHT22;27912;51.828;5.688;2022-11-12T04:58:45;4.30;99.90
42245;DHT22;27912;51.828;5.688;2022-11-12T05:01:10;4.30;99.90
42245;DHT22;27912;51.828;5.688;2022-11-12T05:03:36;4.30;99.90
42245;DHT22;27912;51.828;5.688;2022-11-12T05:06:03;4.30;99.90
42245;DHT22;27912;51.828;5.688;2022-11-12T05:08:49;4.30;99.90
42245;DHT22;27912;51.828;5.688;2022-11-12T05:11:15;4.20;99.90
42245;DHT22;27912;51.828;5.688;2022-11-12T05:13:40;4.20;99.90
42245;DHT22;27912;51.828;5.688;2022-11-12T05:16:06;4.20;99.90
42245;DHT22;27912;51.828;5.688;2022-11-12T05:18:31;4.20;99.90
42245;DHT22;27912;51.828;5.688;2022-11-12T05:20:57;4.20;99.90
42245;DHT22;27912;51.828;5.688;2022-11-12T05:23:42;4.20;99.90
42245;DHT22;27912;51.828;5.688;2022-11-12T05:26:08;4.10;99.90
42245;DHT22;27912;51.828;5.688;2022-11-12T05:28:33;4.10;99.90
42245;DHT22;27912;51.828;5.688;2022-11-12T05:30:59;4.10;99.90
42245;DHT22;27912;51.828;5.688;2022-11-12T05:33:24;4.10;99.90
42245;DHT22;27912;51.828;5.688;2022-11-12T05:35:50;4.10;99.90
42245;DHT22;27912;51.828;5.688;2022-11-12T05:38:15;4.00;99.90
42245;DHT22;27912;51.828;5.688;2022-11-12T05:40:43;4.10;99.90
42245;DHT22;27912;51.828;5.688;2022-11-12T05:43:09;4.10;99.90
42245;DHT22;27912;51.828;5.688;2022-11-12T05:45:34;4.10;99.90
42245;DHT22;27912;51.828;5.688;2022-11-12T05:48:00;4.00;99.90
42245;DHT22;27912;51.828;5.688;2022-11-12T05:50:26;4.10;99.90
42245;DHT22;27912;51.828;5.688;2022-11-12T05:52:51;4.10;99.90
42245;DHT22;27912;51.828;5.688;2022-11-12T05:55:17;4.10;99.90
42245;DHT22;27912;51.828;5.688;2022-11-12T05:57:42;4.10;99.90
42245;DHT22;27912;51.828;5.688;2022-11-12T06:00:08;4.10;99.90
42245;DHT22;27912;51.828;5.688;2022-11-12T06:02:34;4.00;99.90
42245;DHT22;27912;51.828;5.688;2022-11-12T06:04:59;4.00;99.90
42245;DHT22;27912;51.828;5.688;2022-11-12T06:07:25;4.00;99.90
42245;DHT22;27912;51.828;5.688;2022-11-12T06:09:50;4.00;99.90
42245;DHT22;27912;51.828;5.688;2022-11-12T06:12:16;3.90;99.90
42245;DHT22;27912;51.828;5.688;2022-11-12T06:14:41;3.90;99.90
42245;DHT22;27912;51.828;5.688;2022-11-12T06:17:07;3.90;99.90
42245;DHT22;27912;51.828;5.688;2022-11-12T06:19:32;3.90;99.90
42245;DHT22;27912;51.828;5.688;2022-11-12T06:21:58;3.90;99.90
42245;DHT22;27912;51.828;5.688;2022-11-12T06:24:23;3.90;99.90
42245;DHT22;27912;51.828;5.688;2022-11-12T06:26:49;3.90;99.90
42245;DHT22;27912;51.828;5.688;2022-11-12T06:29:14;3.90;99.90
42245;DHT22;27912;51.828;5.688;2022-11-12T06:31:41;3.80;99.90
42245;DHT22;27912;51.828;5.688;2022-11-12T06:34:07;3.80;99.90
42245;DHT22;27912;51.828;5.688;2022-11-12T06:36:33;3.90;99.90
42245;DHT22;27912;51.828;5.688;2022-11-12T06:39:00;3.90;99.90
42245;DHT22;27912;51.828;5.688;2022-11-12T06:41:25;3.90;99.90
42245;DHT22;27912;51.828;5.688;2022-11-12T06:43:51;3.90;99.90
42245;DHT22;27912;51.828;5.688;2022-11-12T06:46:16;3.90;99.90
42245;DHT22;27912;51.828;5.688;2022-11-12T06:48:42;3.90;99.90
42245;DHT22;27912;51.828;5.688;2022-11-12T06:51:11;4.00;99.90
42245;DHT22;27912;51.828;5.688;2022-11-12T06:53:37;4.00;99.90
42245;DHT22;27912;51.828;5.688;2022-11-12T06:56:04;4.00;99.90
42245;DHT22;27912;51.828;5.688;2022-11-12T06:58:30;4.00;99.90
42245;DHT22;27912;51.828;5.688;2022-11-12T07:00:55;4.00;99.90
42245;DHT22;27912;51.828;5.688;2022-11-12T07:03:21;4.00;99.90
42245;DHT22;27912;51.828;5.688;2022-11-12T07:05:46;4.00;99.90
42245;DHT22;27912;51.828;5.688;2022-11-12T07:08:12;4.00;99.90
42245;DHT22;27912;51.828;5.688;2022-11-12T07:10:37;4.00;99.90
42245;DHT22;27912;51.828;5.688;2022-11-12T07:13:03;4.00;99.90
42245;DHT22;27912;51.828;5.688;2022-11-12T07:15:29;4.00;99.90
42245;DHT22;27912;51.828;5.688;2022-11-12T07:17:54;4.10;99.90
42245;DHT22;27912;51.828;5.688;2022-11-12T07:20:20;4.10;99.90
42245;DHT22;27912;51.828;5.688;2022-11-12T07:22:45;4.10;99.90
42245;DHT22;27912;51.828;5.688;2022-11-12T07:25:11;4.20;99.90
42245;DHT22;27912;51.828;5.688;2022-11-12T07:27:36;4.20;99.90
42245;DHT22;27912;51.828;5.688;2022-11-12T07:30:02;4.20;99.90
42245;DHT22;27912;51.828;5.688;2022-11-12T07:32:29;4.20;99.90
42245;DHT22;27912;51.828;5.688;2022-11-12T07:34:54;4.30;99.90
42245;DHT22;27912;51.828;5.688;2022-11-12T07:37:20;4.30;99.90
42245;DHT22;27912;51.828;5.688;2022-11-12T07:39:45;4.40;99.90
42245;DHT22;27912;51.828;5.688;2022-11-12T07:42:11;4.40;99.90
42245;DHT22;27912;51.828;5.688;2022-11-12T07:44:36;4.50;99.90
42245;DHT22;27912;51.828;5.688;2022-11-12T07:47:02;4.50;99.90
42245;DHT22;27912;51.828;5.688;2022-11-12T07:49:27;4.50;99.90
42245;DHT22;27912;51.828;5.688;2022-11-12T07:51:53;4.60;99.90
42245;DHT22;27912;51.828;5.688;2022-11-12T07:54:18;4.70;99.90
42245;DHT22;27912;51.828;5.688;2022-11-12T07:56:44;4.70;99.90
42245;DHT22;27912;51.828;5.688;2022-11-12T07:59:09;4.80;99.90
42245;DHT22;27912;51.828;5.688;2022-11-12T08:01:40;4.90;99.90
42245;DHT22;27912;51.828;5.688;2022-11-12T08:04:07;5.00;99.90
42245;DHT22;27912;51.828;5.688;2022-11-12T08:06:34;5.00;99.90
42245;DHT22;27912;51.828;5.688;2022-11-12T08:09:01;5.10;99.90
42245;DHT22;27912;51.828;5.688;2022-11-12T08:11:26;5.20;99.90
42245;DHT22;27912;51.828;5.688;2022-11-12T08:13:52;5.20;99.90
42245;DHT22;27912;51.828;5.688;2022-11-12T08:16:18;5.30;99.90
42245;DHT22;27912;51.828;5.688;2022-11-12T08:18:44;5.40;99.90
42245;DHT22;27912;51.828;5.688;2022-11-12T08:21:12;5.40;99.90
42245;DHT22;27912;51.828;5.688;2022-11-12T08:23:38;5.50;99.90
42245;DHT22;27912;51.828;5.688;2022-11-12T08:26:05;5.60;99.90
42245;DHT22;27912;51.828;5.688;2022-11-12T08:28:33;5.60;99.90
42245;DHT22;27912;51.828;5.688;2022-11-12T08:31:04;5.70;99.90
42245;DHT22;27912;51.828;5.688;2022-11-12T08:33:31;5.80;99.90
42245;DHT22;27912;51.828;5.688;2022-11-12T08:35:56;5.90;99.90
42245;DHT22;27912;51.828;5.688;2022-11-12T08:38:22;6.00;99.90
42245;DHT22;27912;51.828;5.688;2022-11-12T08:40:47;6.20;99.90
42245;DHT22;27912;51.828;5.688;2022-11-12T08:43:13;6.20;99.90
42245;DHT22;27912;51.828;5.688;2022-11-12T08:45:40;6.30;99.90
42245;DHT22;27912;51.828;5.688;2022-11-12T08:48:10;6.40;99.90
42245;DHT22;27912;51.828;5.688;2022-11-12T08:50:38;6.50;99.90
42245;DHT22;27912;51.828;5.688;2022-11-12T08:53:06;6.60;99.90
42245;DHT22;27912;51.828;5.688;2022-11-12T08:55:32;6.70;99.90
42245;DHT22;27912;51.828;5.688;2022-11-12T08:57:59;6.90;99.90
42245;DHT22;27912;51.828;5.688;2022-11-12T09:00:41;7.00;99.90
42245;DHT22;27912;51.828;5.688;2022-11-12T09:03:18;7.10;99.90
42245;DHT22;27912;51.828;5.688;2022-11-12T09:05:45;7.20;99.90
42245;DHT22;27912;51.828;5.688;2022-11-12T09:08:14;7.30;99.90
42245;DHT22;27912;51.828;5.688;2022-11-12T09:10:40;7.40;99.90
42245;DHT22;27912;51.828;5.688;2022-11-12T09:13:06;7.50;99.90
42245;DHT22;27912;51.828;5.688;2022-11-12T09:15:32;7.70;99.90
42245;DHT22;27912;51.828;5.688;2022-11-12T09:18:02;7.70;99.90
42245;DHT22;27912;51.828;5.688;2022-11-12T09:20:29;7.80;99.90
42245;DHT22;27912;51.828;5.688;2022-11-12T09:23:08;8.00;99.90
42245;DHT22;27912;51.828;5.688;2022-11-12T09:25:34;8.10;99.90
42245;DHT22;27912;51.828;5.688;2022-11-12T09:28:12;8.20;99.90
42245;DHT22;27912;51.828;5.688;2022-11-12T09:30:42;8.40;99.90
42245;DHT22;27912;51.828;5.688;2022-11-12T09:33:08;8.40;99.90
42245;DHT22;27912;51.828;5.688;2022-11-12T09:35:33;8.50;99.90
42245;DHT22;27912;51.828;5.688;2022-11-12T09:37:59;8.50;99.90
42245;DHT22;27912;51.828;5.688;2022-11-12T09:40:36;8.70;99.90
42245;DHT22;27912;51.828;5.688;2022-11-12T09:43:14;8.70;99.90
42245;DHT22;27912;51.828;5.688;2022-11-12T09:45:43;8.90;99.90
42245;DHT22;27912;51.828;5.688;2022-11-12T09:48:12;9.00;99.90
42245;DHT22;27912;51.828;5.688;2022-11-12T09:50:49;9.10;99.90
42245;DHT22;27912;51.828;5.688;2022-11-12T09:56:05;9.30;99.90
42245;DHT22;27912;51.828;5.688;2022-11-12T09:58:32;9.40;99.90
42245;DHT22;27912;51.828;5.688;2022-11-12T10:06:34;9.80;99.90
42245;DHT22;27912;51.828;5.688;2022-11-12T10:09:08;9.90;99.90
42245;DHT22;27912;51.828;5.688;2022-11-12T10:12:00;10.00;99.90
42245;DHT22;27912;51.828;5.688;2022-11-12T10:14:58;10.10;99.90
42245;DHT22;27912;51.828;5.688;2022-11-12T10:18:07;10.20;99.90
42245;DHT22;27912;51.828;5.688;2022-11-12T10:20:54;10.30;99.90
42245;DHT22;27912;51.828;5.688;2022-11-12T10:23:25;10.50;99.90
42245;DHT22;27912;51.828;5.688;2022-11-12T10:25:56;10.60;99.90
42245;DHT22;27912;51.828;5.688;2022-11-12T10:28:37;10.60;99.90
42245;DHT22;27912;51.828;5.688;2022-11-12T10:31:10;10.60;99.90
42245;DHT22;27912;51.828;5.688;2022-11-12T10:33:37;10.70;99.90
42245;DHT22;27912;51.828;5.688;2022-11-12T10:36:33;10.80;99.90
42245;DHT22;27912;51.828;5.688;2022-11-12T10:39:00;10.80;99.90
42245;DHT22;27912;51.828;5.688;2022-11-12T10:41:26;10.90;99.90
42245;DHT22;27912;51.828;5.688;2022-11-12T10:43:54;11.00;99.90
42245;DHT22;27912;51.828;5.688;2022-11-12T10:46:25;11.10;99.90
42245;DHT22;27912;51.828;5.688;2022-11-12T10:48:54;11.10;99.90
42245;DHT22;27912;51.828;5.688;2022-11-12T10:51:27;11.20;99.90
42245;DHT22;27912;51.828;5.688;2022-11-12T10:53:52;11.40;99.90
42245;DHT22;27912;51.828;5.688;2022-11-12T10:56:31;11.50;99.90
42245;DHT22;27912;51.828;5.688;2022-11-12T10:59:15;11.50;99.90
42245;DHT22;27912;51.828;5.688;2022-11-12T11:01:42;11.60;99.90
42245;DHT22;27912;51.828;5.688;2022-11-12T11:06:47;11.70;99.90
42245;DHT22;27912;51.828;5.688;2022-11-12T11:09:14;11.70;99.90
42245;DHT22;27912;51.828;5.688;2022-11-12T11:11:51;11.80;99.90
42245;DHT22;27912;51.828;5.688;2022-11-12T11:16:58;11.90;99.90
42245;DHT22;27912;51.828;5.688;2022-11-12T11:19:34;12.00;99.90
42245;DHT22;27912;51.828;5.688;2022-11-12T11:22:09;12.10;99.90
42245;DHT22;27912;51.828;5.688;2022-11-12T11:27:34;12.20;99.90
42245;DHT22;27912;51.828;5.688;2022-11-12T11:30:16;12.20;99.90
42245;DHT22;27912;51.828;5.688;2022-11-12T11:35:52;12.40;99.90
42245;DHT22;27912;51.828;5.688;2022-11-12T11:38:21;12.50;99.90
42245;DHT22;27912;51.828;5.688;2022-11-12T11:41:09;12.60;99.90
42245;DHT22;27912;51.828;5.688;2022-11-12T11:49:31;12.90;99.90
42245;DHT22;27912;51.828;5.688;2022-11-12T11:57:58;13.10;99.90
42245;DHT22;27912;51.828;5.688;2022-11-12T12:00:38;13.30;99.90
42245;DHT22;27912;51.828;5.688;2022-11-12T12:03:15;13.30;99.90
42245;DHT22;27912;51.828;5.688;2022-11-12T12:06:28;13.40;99.90
42245;DHT22;27912;51.828;5.688;2022-11-12T12:18:02;13.60;99.90
42245;DHT22;27912;51.828;5.688;2022-11-12T12:20:43;13.70;99.90
42245;DHT22;27912;51.828;5.688;2022-11-12T12:26:01;13.90;99.90
42245;DHT22;27912;51.828;5.688;2022-11-12T12:28:36;14.00;99.90
42245;DHT22;27912;51.828;5.688;2022-11-12T12:31:10;14.00;99.90
42245;DHT22;27912;51.828;5.688;2022-11-12T12:36:16;14.10;99.90
42245;DHT22;27912;51.828;5.688;2022-11-12T12:38:51;14.20;99.90
42245;DHT22;27912;51.828;5.688;2022-11-12T12:41:24;14.40;99.90
42245;DHT22;27912;51.828;5.688;2022-11-12T12:44:01;14.40;99.90
42245;DHT22;27912;51.828;5.688;2022-11-12T12:46:29;14.50;99.90
42245;DHT22;27912;51.828;5.688;2022-11-12T12:48:57;14.60;99.90
42245;DHT22;27912;51.828;5.688;2022-11-12T12:51:24;14.60;99.90
42245;DHT22;27912;51.828;5.688;2022-11-12T12:53:53;14.60;99.90
42245;DHT22;27912;51.828;5.688;2022-11-12T12:58:48;14.60;99.90
42245;DHT22;27912;51.828;5.688;2022-11-12T13:03:54;14.60;99.90
42245;DHT22;27912;51.828;5.688;2022-11-12T13:08:54;14.70;99.90
42245;DHT22;27912;51.828;5.688;2022-11-12T13:17:11;14.80;99.90
42245;DHT22;27912;51.828;5.688;2022-11-12T13:25:22;14.90;99.90
42245;DHT22;27912;51.828;5.688;2022-11-12T13:33:00;15.00;99.90
42245;DHT22;27912;51.828;5.688;2022-11-12T13:35:32;15.10;99.90
42245;DHT22;27912;51.828;5.688;2022-11-12T13:43:31;15.30;99.90
42245;DHT22;27912;51.828;5.688;2022-11-12T13:48:32;15.30;99.90
42245;DHT22;27912;51.828;5.688;2022-11-12T13:51:02;15.30;99.90
42245;DHT22;27912;51.828;5.688;2022-11-12T13:53:32;15.30;99.90
42245;DHT22;27912;51.828;5.688;2022-11-12T13:55:58;15.30;99.90
42245;DHT22;27912;51.828;5.688;2022-11-12T13:58:36;15.20;99.90
42245;DHT22;27912;51.828;5.688;2022-11-12T14:01:05;15.20;99.90
42245;DHT22;27912;51.828;5.688;2022-11-12T14:03:38;15.10;99.90
42245;DHT22;27912;51.828;5.688;2022-11-12T14:14:33;15.20;99.90
42245;DHT22;27912;51.828;5.688;2022-11-12T14:17:07;15.20;99.90
42245;DHT22;27912;51.828;5.688;2022-11-12T14:20:03;15.20;99.90
42245;DHT22;27912;51.828;5.688;2022-11-12T14:22:41;15.10;99.90
42245;DHT22;27912;51.828;5.688;2022-11-12T14:25:22;15.10;99.90
42245;DHT22;27912;51.828;5.688;2022-11-12T14:27:49;15.10;99.90
42245;DHT22;27912;51.828;5.688;2022-11-12T14:32:57;15.00;99.90
42245;DHT22;27912;51.828;5.688;2022-11-12T14:35:37;15.00;99.90
42245;DHT22;27912;51.828;5.688;2022-11-12T14:40:52;14.90;99.90
42245;DHT22;27912;51.828;5.688;2022-11-12T14:45:57;14.80;99.90
42245;DHT22;27912;51.828;5.688;2022-11-12T14:48:23;14.70;99.90
42245;DHT22;27912;51.828;5.688;2022-11-12T14:50:54;14.60;99.90
42245;DHT22;27912;51.828;5.688;2022-11-12T14:53:26;14.50;99.90
42245;DHT22;27912;51.828;5.688;2022-11-12T14:55:55;14.40;99.90
42245;DHT22;27912;51.828;5.688;2022-11-12T14:58:22;14.30;99.90
42245;DHT22;27912;51.828;5.688;2022-11-12T15:00:50;14.20;99.90
42245;DHT22;27912;51.828;5.688;2022-11-12T15:03:31;14.10;99.90
42245;DHT22;27912;51.828;5.688;2022-11-12T15:05:57;14.00;99.90
42245;DHT22;27912;51.828;5.688;2022-11-12T15:08:31;13.90;99.90
42245;DHT22;27912;51.828;5.688;2022-11-12T15:13:41;13.70;99.90
42245;DHT22;27912;51.828;5.688;2022-11-12T15:16:09;13.60;99.90
42245;DHT22;27912;51.828;5.688;2022-11-12T15:18:36;13.50;99.90
42245;DHT22;27912;51.828;5.688;2022-11-12T15:21:23;13.40;99.90
42245;DHT22;27912;51.828;5.688;2022-11-12T15:26:42;13.20;99.90
42245;DHT22;27912;51.828;5.688;2022-11-12T15:29:32;13.00;99.90
42245;DHT22;27912;51.828;5.688;2022-11-12T15:31:59;12.90;99.90
42245;DHT22;27912;51.828;5.688;2022-11-12T15:37:10;12.60;99.90
42245;DHT22;27912;51.828;5.688;2022-11-12T15:39:49;12.50;99.90
42245;DHT22;27912;51.828;5.688;2022-11-12T15:44:45;12.30;99.90
42245;DHT22;27912;51.828;5.688;2022-11-12T15:47:18;12.20;99.90
42245;DHT22;27912;51.828;5.688;2022-11-12T15:49:52;12.10;99.90
42245;DHT22;27912;51.828;5.688;2022-11-12T15:52:18;12.00;99.90
42245;DHT22;27912;51.828;5.688;2022-11-12T15:54:45;11.90;99.90
42245;DHT22;27912;51.828;5.688;2022-11-12T15:57:22;11.80;99.90
42245;DHT22;27912;51.828;5.688;2022-11-12T16:00:51;11.70;99.90
42245;DHT22;27912;51.828;5.688;2022-11-12T16:03:18;11.60;99.90
42245;DHT22;27912;51.828;5.688;2022-11-12T16:05:45;11.40;99.90
42245;DHT22;27912;51.828;5.688;2022-11-12T16:08:11;11.30;99.90
42245;DHT22;27912;51.828;5.688;2022-11-12T16:10:42;11.30;99.90
42245;DHT22;27912;51.828;5.688;2022-11-12T16:13:38;11.20;99.90
42245;DHT22;27912;51.828;5.688;2022-11-12T16:16:05;11.10;99.90
42245;DHT22;27912;51.828;5.688;2022-11-12T16:18:32;11.00;99.90
42245;DHT22;27912;51.828;5.688;2022-11-12T16:20:57;11.00;99.90
42245;DHT22;27912;51.828;5.688;2022-11-12T16:23:23;11.00;99.90
42245;DHT22;27912;51.828;5.688;2022-11-12T16:25:49;11.00;99.90
42245;DHT22;27912;51.828;5.688;2022-11-12T16:28:16;10.90;99.90
42245;DHT22;27912;51.828;5.688;2022-11-12T16:30:42;10.90;99.90
42245;DHT22;27912;51.828;5.688;2022-11-12T16:33:10;10.80;99.90
42245;DHT22;27912;51.828;5.688;2022-11-12T16:35:36;10.80;99.90
42245;DHT22;27912;51.828;5.688;2022-11-12T16:38:02;10.80;99.90
42245;DHT22;27912;51.828;5.688;2022-11-12T16:40:29;10.80;99.90
42245;DHT22;27912;51.828;5.688;2022-11-12T16:42:55;10.70;99.90
42245;DHT22;27912;51.828;5.688;2022-11-12T16:45:29;10.70;99.90
42245;DHT22;27912;51.828;5.688;2022-11-12T16:47:56;10.60;99.90
42245;DHT22;27912;51.828;5.688;2022-11-12T16:50:25;10.60;99.90
42245;DHT22;27912;51.828;5.688;2022-11-12T16:52:53;10.60;99.90
42245;DHT22;27912;51.828;5.688;2022-11-12T16:55:19;10.50;99.90
42245;DHT22;27912;51.828;5.688;2022-11-12T16:57:45;10.50;99.90
42245;DHT22;27912;51.828;5.688;2022-11-12T17:00:16;10.50;99.90
42245;DHT22;27912;51.828;5.688;2022-11-12T17:02:42;10.50;99.90
42245;DHT22;27912;51.828;5.688;2022-11-12T17:05:16;10.40;99.90
42245;DHT22;27912;51.828;5.688;2022-11-12T17:07:44;10.40;99.90
42245;DHT22;27912;51.828;5.688;2022-11-12T17:10:10;10.40;99.90
42245;DHT22;27912;51.828;5.688;2022-11-12T17:12:35;10.30;99.90
42245;DHT22;27912;51.828;5.688;2022-11-12T17:15:01;10.30;99.90
42245;DHT22;27912;51.828;5.688;2022-11-12T17:17:26;10.30;99.90
42245;DHT22;27912;51.828;5.688;2022-11-12T17:19:52;10.20;99.90
42245;DHT22;27912;51.828;5.688;2022-11-12T17:22:18;10.20;99.90
42245;DHT22;27912;51.828;5.688;2022-11-12T17:24:46;10.20;99.90
42245;DHT22;27912;51.828;5.688;2022-11-12T17:27:12;10.20;99.90
42245;DHT22;27912;51.828;5.688;2022-11-12T17:29:37;10.10;99.90
42245;DHT22;27912;51.828;5.688;2022-11-12T17:32:03;10.10;99.90
42245;DHT22;27912;51.828;5.688;2022-11-12T17:34:29;10.10;99.90
42245;DHT22;27912;51.828;5.688;2022-11-12T17:36:54;10.00;99.90
42245;DHT22;27912;51.828;5.688;2022-11-12T17:39:20;10.00;99.90
42245;DHT22;27912;51.828;5.688;2022-11-12T17:41:46;10.00;99.90